Time;durP1;ratioP1;P1;durP2;ratioP2;P2;SDS_P1;SDS_P2;PMS_P1;PMS_P2;Temp;Humidity;BMP_temperature;BMP_pressure;BME280_temperature;BME280_humidity;BME280_pressure;Samples;Min_cycle;Max_cycle;Signal;HPM_P1;HPM_P2
2022/04/09 00:01:26;;;;;;;14.82;10.18;;;3.80;99.90;;;;;;5034512;28;20051;-68
2022/04/09 00:03:53;;;;;;;12.55;10.23;;;3.80;99.90;;;;;;5036554;28;20037;-69
2022/04/09 00:06:20;;;;;;;15.13;9.85;;;3.80;99.90;;;;;;5036257;28;20076;-69
2022/04/09 00:08:46;;;;;;;15.50;10.05;;;3.70;99.90;;;;;;5034970;28;20131;-69
2022/04/09 00:11:13;;;;;;;16.63;10.43;;;3.80;99.90;;;;;;5036195;28;20056;-68
2022/04/09 00:13:41;;;;;;;16.33;9.30;;;3.80;99.90;;;;;;5042361;28;20136;-70
2022/04/09 00:16:08;;;;;;;10.70;9.65;;;3.90;99.90;;;;;;5036573;28;20040;-70
2022/04/09 00:18:35;;;;;;;11.27;9.45;;;3.90;99.90;;;;;;5034363;28;20057;-69
2022/04/09 00:21:02;;;;;;;13.77;9.68;;;3.90;99.90;;;;;;5033633;28;20121;-69
2022/04/09 00:23:29;;;;;;;17.73;9.57;;;3.80;99.90;;;;;;5033762;28;20047;-70
2022/04/09 00:25:56;;;;;;;11.38;9.40;;;3.90;99.90;;;;;;5050312;28;20053;-69
2022/04/09 00:28:22;;;;;;;14.98;10.45;;;3.80;99.90;;;;;;5032051;28;20500;-69
2022/04/09 00:30:49;;;;;;;12.27;9.35;;;3.80;99.90;;;;;;5034776;28;20118;-69
2022/04/09 00:33:16;;;;;;;11.48;8.18;;;3.70;99.90;;;;;;5036785;28;20045;-69
2022/04/09 00:35:43;;;;;;;21.73;9.27;;;3.70;99.90;;;;;;5045744;22;20050;-72
2022/04/09 00:38:09;;;;;;;13.57;8.50;;;3.70;99.90;;;;;;5020303;28;20041;-75
2022/04/09 00:40:38;;;;;;;18.27;8.63;;;3.70;99.90;;;;;;5018916;28;20041;-74
2022/04/09 00:43:04;;;;;;;17.17;9.02;;;3.70;99.90;;;;;;5024478;28;20439;-74
2022/04/09 00:45:31;;;;;;;15.10;9.05;;;3.70;99.90;;;;;;5020951;28;20048;-73
2022/04/09 00:47:59;;;;;;;18.75;8.55;;;3.70;99.90;;;;;;5020736;28;20095;-73
2022/04/09 00:50:26;;;;;;;19.25;9.13;;;3.70;99.90;;;;;;5021301;28;20107;-73
2022/04/09 00:52:58;;;;;;;14.30;8.60;;;3.80;99.90;;;;;;5020448;28;20053;-73
2022/04/09 00:58:17;;;;;;;14.40;9.02;;;3.70;99.90;;;;;;5018516;28;20049;-73
2022/04/09 01:00:44;;;;;;;13.60;8.48;;;3.70;99.90;;;;;;5019868;28;20055;-73
2022/04/09 01:03:19;;;;;;;15.43;8.63;;;3.60;99.90;;;;;;5019385;28;20072;-73
2022/04/09 01:05:50;;;;;;;11.25;7.88;;;3.60;99.90;;;;;;5020184;28;20095;-73
2022/04/09 01:08:18;;;;;;;14.63;9.25;;;3.60;99.90;;;;;;5019819;28;20141;-74
2022/04/09 01:10:46;;;;;;;14.35;7.47;;;3.50;99.90;;;;;;5020461;28;20064;-73
2022/04/09 01:13:15;;;;;;;18.85;8.07;;;3.60;99.90;;;;;;5023407;28;20072;-74
2022/04/09 01:15:42;;;;;;;12.23;8.13;;;3.60;99.90;;;;;;5020307;28;20239;-75
2022/04/09 01:18:10;;;;;;;17.90;8.23;;;3.60;99.90;;;;;;5004193;28;20463;-74
2022/04/09 01:20:38;;;;;;;12.93;7.50;;;3.50;99.90;;;;;;5020256;28;20124;-74
2022/04/09 01:23:04;;;;;;;17.05;7.75;;;3.50;99.90;;;;;;5023495;28;20221;-74
2022/04/09 01:25:31;;;;;;;15.02;7.60;;;3.50;99.90;;;;;;5023655;28;20044;-74
2022/04/09 01:28:01;;;;;;;22.35;8.65;;;3.50;99.90;;;;;;5023619;28;20123;-74
2022/04/09 01:30:28;;;;;;;18.98;8.13;;;3.50;99.90;;;;;;5022817;28;20098;-74
2022/04/09 01:32:55;;;;;;;16.23;7.82;;;3.50;99.90;;;;;;5023257;28;20299;-74
2022/04/09 01:35:23;;;;;;;17.65;8.05;;;3.40;99.90;;;;;;5023753;28;20196;-74
2022/04/09 01:37:51;;;;;;;16.75;7.65;;;3.40;99.90;;;;;;5022466;28;20037;-73
2022/04/09 01:40:18;;;;;;;8.63;6.75;;;3.40;99.90;;;;;;5007015;28;20053;-74
2022/04/09 01:42:48;;;;;;;10.13;7.13;;;3.40;99.90;;;;;;5024652;28;20072;-74
2022/04/09 01:45:15;;;;;;;25.95;7.38;;;3.40;99.90;;;;;;5006851;28;20502;-73
2022/04/09 01:47:43;;;;;;;15.82;6.90;;;3.30;99.90;;;;;;5024380;28;20118;-74
2022/04/09 01:50:10;;;;;;;16.05;7.22;;;3.30;99.90;;;;;;5027597;28;20653;-73
2022/04/09 01:52:38;;;;;;;15.45;8.30;;;3.30;99.90;;;;;;5014571;28;20164;-73
2022/04/09 01:55:05;;;;;;;17.85;6.70;;;3.30;99.90;;;;;;5018768;28;20052;-74
2022/04/09 01:57:34;;;;;;;15.85;6.15;;;3.30;99.90;;;;;;5023511;28;20454;-74
2022/04/09 02:00:05;;;;;;;19.55;8.00;;;3.30;99.90;;;;;;5021091;28;20050;-73
2022/04/09 02:02:40;;;;;;;18.42;6.55;;;3.30;99.90;;;;;;5023538;28;20046;-74
2022/04/09 02:05:08;;;;;;;15.45;6.80;;;3.30;99.90;;;;;;5006550;28;20046;-74
2022/04/09 02:07:35;;;;;;;18.10;6.90;;;3.30;99.90;;;;;;5022010;28;20049;-74
2022/04/09 02:10:04;;;;;;;19.50;6.97;;;3.30;99.90;;;;;;5022809;28;20053;-73
2022/04/09 02:12:34;;;;;;;18.08;6.15;;;3.30;99.90;;;;;;5025805;28;20115;-74
2022/04/09 02:15:07;;;;;;;17.88;7.07;;;3.30;99.90;;;;;;5018790;28;20496;-74
2022/04/09 02:17:35;;;;;;;21.92;7.20;;;3.30;99.90;;;;;;5007137;28;20046;-74
2022/04/09 02:20:03;;;;;;;16.38;7.60;;;3.20;99.90;;;;;;5021566;28;20137;-74
2022/04/09 02:22:35;;;;;;;23.67;9.65;;;3.20;99.90;;;;;;5022844;28;20270;-73
2022/04/09 02:25:07;;;;;;;17.10;6.28;;;3.30;99.90;;;;;;5023727;28;20049;-74
2022/04/09 02:27:36;;;;;;;16.45;6.30;;;3.30;99.90;;;;;;5022260;28;20420;-73
2022/04/09 02:30:06;;;;;;;15.65;6.75;;;3.30;99.90;;;;;;5019734;28;20069;-73
2022/04/09 02:32:48;;;;;;;14.55;6.50;;;3.30;99.90;;;;;;5022529;28;20409;-73
2022/04/09 02:35:18;;;;;;;17.98;6.63;;;3.30;99.90;;;;;;5002299;28;20053;-73
2022/04/09 02:37:45;;;;;;;18.17;6.80;;;3.30;99.90;;;;;;4986763;28;20476;-73
2022/04/09 02:40:13;;;;;;;16.38;6.93;;;3.30;99.90;;;;;;5020136;28;20286;-74
2022/04/09 02:42:41;;;;;;;20.73;7.03;;;3.30;99.90;;;;;;5008011;28;20049;-73
2022/04/09 02:45:11;;;;;;;22.13;6.90;;;3.20;99.90;;;;;;5020950;28;20045;-73
2022/04/09 02:47:39;;;;;;;22.00;6.82;;;3.20;99.90;;;;;;5005564;28;20115;-74
2022/04/09 02:50:12;;;;;;;15.63;6.13;;;3.20;99.90;;;;;;5020745;28;20180;-73
2022/04/09 02:52:40;;;;;;;12.57;6.32;;;3.30;99.90;;;;;;5021760;28;20119;-73
2022/04/09 02:55:11;;;;;;;26.35;7.68;;;3.30;99.90;;;;;;5021665;28;20610;-73
2022/04/09 02:57:40;;;;;;;17.55;7.97;;;3.30;99.90;;;;;;5020961;28;20115;-74
2022/04/09 03:00:13;;;;;;;28.48;7.53;;;3.30;99.90;;;;;;5021644;28;20049;-74
2022/04/09 03:02:42;;;;;;;17.83;6.28;;;3.40;99.90;;;;;;5022459;28;20084;-72
2022/04/09 03:05:24;;;;;;;23.08;7.88;;;3.30;99.90;;;;;;5022134;28;20066;-74
2022/04/09 03:07:50;;;;;;;15.88;7.68;;;3.30;99.90;;;;;;5023450;28;20146;-73
2022/04/09 03:10:17;;;;;;;15.23;7.13;;;3.30;99.90;;;;;;5021254;28;20053;-73
2022/04/09 03:12:48;;;;;;;22.48;7.07;;;3.20;99.90;;;;;;5009241;28;20087;-73
2022/04/09 03:15:16;;;;;;;17.42;7.32;;;3.20;99.90;;;;;;5022045;28;20258;-74
2022/04/09 03:17:43;;;;;;;14.50;7.20;;;3.10;99.90;;;;;;5021177;28;20147;-74
2022/04/09 03:20:12;;;;;;;19.63;6.90;;;3.20;99.90;;;;;;5005228;28;20045;-73
2022/04/09 03:22:44;;;;;;;20.00;7.68;;;3.20;99.90;;;;;;5020591;28;20061;-73
2022/04/09 03:25:13;;;;;;;16.88;6.75;;;3.20;99.90;;;;;;5019062;28;20087;-73
2022/04/09 03:27:40;;;;;;;17.65;6.70;;;3.20;99.90;;;;;;5021970;28;20080;-73
2022/04/09 03:30:08;;;;;;;20.80;7.47;;;3.20;99.90;;;;;;5021251;28;20049;-73
2022/04/09 03:32:36;;;;;;;15.82;7.93;;;3.20;99.90;;;;;;5020838;28;20463;-73
2022/04/09 03:35:07;;;;;;;25.73;7.95;;;3.20;99.90;;;;;;5021293;28;20045;-74
2022/04/09 03:37:35;;;;;;;20.58;7.03;;;3.20;99.90;;;;;;5005312;28;20041;-73
2022/04/09 03:40:04;;;;;;;21.30;7.05;;;3.20;99.90;;;;;;5021352;28;20049;-73
2022/04/09 03:42:32;;;;;;;14.30;5.88;;;3.20;99.90;;;;;;5008454;28;20041;-73
2022/04/09 03:45:00;;;;;;;17.13;6.20;;;3.10;99.90;;;;;;5004416;28;20132;-74
2022/04/09 03:47:27;;;;;;;13.80;5.88;;;3.10;99.90;;;;;;5020551;28;20079;-73
2022/04/09 03:49:54;;;;;;;18.10;7.30;;;3.10;99.90;;;;;;5026210;28;20420;-74
2022/04/09 03:52:21;;;;;;;18.85;6.28;;;3.10;99.90;;;;;;5020319;28;20140;-73
2022/04/09 03:54:48;;;;;;;17.70;7.45;;;3.20;99.90;;;;;;5003733;28;20059;-73
2022/04/09 03:57:15;;;;;;;21.40;6.90;;;3.10;99.90;;;;;;5021805;28;20160;-73
2022/04/09 03:59:51;;;;;;;14.32;5.40;;;3.10;99.90;;;;;;5021068;28;20408;-73
2022/04/09 04:02:18;;;;;;;25.40;5.85;;;3.10;99.90;;;;;;5020968;28;20046;-73
2022/04/09 04:04:45;;;;;;;14.18;6.68;;;3.10;99.90;;;;;;5021181;28;20103;-74
2022/04/09 04:07:13;;;;;;;21.40;6.40;;;3.10;99.90;;;;;;5020479;28;20435;-74
2022/04/09 04:09:42;;;;;;;18.38;6.45;;;3.20;99.90;;;;;;5003516;28;20056;-73
2022/04/09 04:12:09;;;;;;;20.98;6.55;;;3.20;99.90;;;;;;5004907;28;20519;-73
2022/04/09 04:14:36;;;;;;;20.77;6.60;;;3.20;99.90;;;;;;5024280;28;20057;-73
2022/04/09 04:17:03;;;;;;;12.63;5.82;;;3.10;99.90;;;;;;5004712;28;20235;-74
2022/04/09 04:19:33;;;;;;;20.83;6.93;;;3.00;99.90;;;;;;5020639;28;20045;-73
2022/04/09 04:22:01;;;;;;;18.75;6.00;;;3.00;99.90;;;;;;5018407;28;20170;-73
2022/04/09 04:24:29;;;;;;;15.10;6.38;;;3.10;99.90;;;;;;5004606;28;20583;-74
2022/04/09 04:26:56;;;;;;;20.90;5.25;;;3.10;99.90;;;;;;5020701;28;20056;-73
2022/04/09 04:29:24;;;;;;;21.73;6.00;;;3.10;99.90;;;;;;5020824;28;20088;-73
2022/04/09 04:31:51;;;;;;;19.15;5.72;;;3.20;99.90;;;;;;5011910;28;20053;-74
2022/04/09 04:34:19;;;;;;;13.40;5.47;;;3.20;99.90;;;;;;5021234;28;20045;-74
2022/04/09 04:36:46;;;;;;;24.33;6.60;;;3.20;99.90;;;;;;5020247;28;20482;-74
2022/04/09 04:39:15;;;;;;;15.57;6.13;;;3.20;99.90;;;;;;5021053;28;20585;-74
2022/04/09 04:41:47;;;;;;;20.42;6.15;;;3.20;99.90;;;;;;5005471;28;20212;-74
2022/04/09 04:44:14;;;;;;;17.95;5.95;;;3.20;99.90;;;;;;5024434;28;20045;-74
2022/04/09 04:46:45;;;;;;;20.58;6.85;;;3.20;99.90;;;;;;5020557;28;20285;-74
2022/04/09 04:49:17;;;;;;;14.18;5.32;;;3.10;99.90;;;;;;5009015;28;20069;-76
2022/04/09 04:51:45;;;;;;;15.55;5.20;;;3.10;99.90;;;;;;5003732;28;20092;-76
2022/04/09 04:54:13;;;;;;;19.60;6.53;;;2.90;99.90;;;;;;5005028;28;20140;-75
2022/04/09 04:56:42;;;;;;;21.58;8.18;;;2.80;99.90;;;;;;5004913;28;20528;-76
2022/04/09 04:59:09;;;;;;;19.50;6.80;;;2.80;99.90;;;;;;5023732;28;20064;-76
2022/04/09 05:01:40;;;;;;;19.58;7.35;;;2.70;99.90;;;;;;5024641;28;20143;-76
2022/04/09 05:04:07;;;;;;;22.75;6.53;;;2.70;99.90;;;;;;5025852;28;20076;-76
2022/04/09 05:06:36;;;;;;;23.60;7.32;;;2.60;99.90;;;;;;5025222;28;20349;-77
2022/04/09 05:09:04;;;;;;;25.80;6.82;;;2.60;99.90;;;;;;5024160;28;20060;-76
2022/04/09 05:11:39;;;;;;;21.05;6.70;;;2.50;99.90;;;;;;5009906;28;20132;-76
2022/04/09 05:14:12;;;;;;;22.92;8.30;;;2.50;99.90;;;;;;5027729;28;20141;-76
2022/04/09 05:16:45;;;;;;;20.05;8.82;;;2.60;99.90;;;;;;5022194;28;20060;-76
2022/04/09 05:19:12;;;;;;;21.15;8.75;;;2.70;99.90;;;;;;5021799;28;20057;-76
2022/04/09 05:21:45;;;;;;;23.27;8.63;;;2.70;99.90;;;;;;5020135;28;20044;-76
2022/04/09 05:24:12;;;;;;;25.10;7.82;;;2.80;99.90;;;;;;5024355;28;20053;-75
2022/04/09 05:26:40;;;;;;;24.73;8.60;;;2.90;99.90;;;;;;5001640;28;20099;-75
2022/04/09 05:29:07;;;;;;;22.65;7.45;;;2.90;99.90;;;;;;5023856;28;20049;-75
2022/04/09 05:31:33;;;;;;;22.63;8.63;;;2.90;99.90;;;;;;5023603;28;20049;-76
2022/04/09 05:34:00;;;;;;;19.85;8.68;;;3.00;99.90;;;;;;5024103;28;20411;-76
2022/04/09 05:36:30;;;;;;;27.17;7.90;;;2.90;99.90;;;;;;5008015;28;20051;-76
2022/04/09 05:38:59;;;;;;;23.80;8.95;;;2.80;99.90;;;;;;5023555;28;20048;-75
2022/04/09 05:41:27;;;;;;;38.03;11.13;;;2.80;99.90;;;;;;5007549;28;20299;-76
2022/04/09 05:43:54;;;;;;;31.77;10.88;;;2.80;99.90;;;;;;5026948;28;20053;-75
2022/04/09 05:46:23;;;;;;;32.25;10.80;;;2.80;99.90;;;;;;5022523;28;20124;-75
2022/04/09 05:48:51;;;;;;;26.33;11.05;;;2.90;99.90;;;;;;5007499;28;20062;-75
2022/04/09 05:51:18;;;;;;;22.70;10.02;;;2.90;99.90;;;;;;5022007;28;20159;-75
2022/04/09 05:53:48;;;;;;;33.67;11.75;;;2.90;99.90;;;;;;5024158;28;20107;-75
2022/04/09 05:56:17;;;;;;;28.45;9.07;;;3.00;99.90;;;;;;5023320;28;20042;-74
2022/04/09 05:58:43;;;;;;;27.10;9.52;;;3.00;99.90;;;;;;5015559;28;20061;-75
2022/04/09 06:01:30;;;;;;;22.35;8.77;;;3.00;99.90;;;;;;5019876;28;20138;-75
2022/04/09 06:04:03;;;;;;;27.00;9.45;;;3.10;99.90;;;;;;5022779;28;20060;-75
2022/04/09 06:06:30;;;;;;;19.45;7.35;;;3.10;99.90;;;;;;5021831;28;20037;-75
2022/04/09 06:09:05;;;;;;;15.80;7.47;;;3.10;99.90;;;;;;5006579;28;20203;-75
2022/04/09 06:11:45;;;;;;;24.02;9.45;;;3.00;99.90;;;;;;5021901;28;20147;-75
2022/04/09 06:14:17;;;;;;;17.50;9.10;;;3.10;99.90;;;;;;5009252;28;20053;-75
2022/04/09 06:16:45;;;;;;;23.17;8.73;;;3.10;99.90;;;;;;5022154;28;20127;-75
2022/04/09 06:19:12;;;;;;;23.85;10.30;;;3.10;99.90;;;;;;5022531;28;20037;-75
2022/04/09 06:21:39;;;;;;;26.10;9.45;;;3.00;99.90;;;;;;5021875;28;20507;-76
2022/04/09 06:24:09;;;;;;;32.42;10.88;;;2.90;99.90;;;;;;5021575;28;20073;-75
2022/04/09 06:26:36;;;;;;;27.58;12.43;;;2.80;99.90;;;;;;5000268;28;20054;-75
2022/04/09 06:29:04;;;;;;;31.02;11.05;;;2.90;99.90;;;;;;5021760;28;20065;-75
2022/04/09 06:31:31;;;;;;;26.73;12.57;;;2.90;99.90;;;;;;5002342;28;20077;-75
2022/04/09 06:33:58;;;;;;;25.63;11.18;;;2.90;99.90;;;;;;5019176;28;20808;-75
2022/04/09 06:36:25;;;;;;;27.27;11.75;;;3.00;99.90;;;;;;5007763;23;20076;-77
2022/04/09 06:38:53;;;;;;;22.23;11.32;;;3.10;99.90;;;;;;5002973;28;20131;-77
2022/04/09 06:41:28;;;;;;;28.42;10.82;;;3.20;99.90;;;;;;4999731;28;20042;-78
2022/04/09 06:43:56;;;;;;;32.17;11.00;;;3.30;99.90;;;;;;5026535;28;20050;-77
2022/04/09 06:46:31;;;;;;;28.40;12.93;;;3.40;99.90;;;;;;5014757;28;20045;-77
2022/04/09 06:49:17;;;;;;;30.65;10.57;;;3.40;99.90;;;;;;4994800;28;20990;-77
2022/04/09 06:51:48;;;;;;;29.13;8.85;;;3.30;99.90;;;;;;5014156;28;20535;-78
2022/04/09 06:54:34;;;;;;;19.83;9.80;;;3.20;99.90;;;;;;4999893;28;20136;-77
2022/04/09 06:57:01;;;;;;;25.50;8.90;;;3.20;99.90;;;;;;5011690;28;20073;-78
2022/04/09 06:59:34;;;;;;;26.33;9.95;;;3.20;99.90;;;;;;4995587;28;20073;-77
2022/04/09 07:02:01;;;;;;;31.52;9.77;;;3.30;99.90;;;;;;5009121;28;20065;-78
2022/04/09 07:04:28;;;;;;;24.63;9.35;;;3.30;99.90;;;;;;5009049;28;20038;-77
2022/04/09 07:06:55;;;;;;;18.55;8.23;;;3.40;99.90;;;;;;5005201;28;20463;-78
2022/04/09 07:09:21;;;;;;;19.20;8.00;;;3.50;99.90;;;;;;5004589;28;20046;-76
2022/04/09 07:11:48;;;;;;;22.33;9.30;;;3.50;99.90;;;;;;5004836;28;20050;-78
2022/04/09 07:14:16;;;;;;;20.02;8.32;;;3.40;99.90;;;;;;5006245;28;20860;-77
2022/04/09 07:16:45;;;;;;;26.63;8.18;;;3.40;99.90;;;;;;5007525;28;20123;-77
2022/04/09 07:19:12;;;;;;;20.33;8.60;;;3.40;99.90;;;;;;4992971;28;20881;-77
2022/04/09 07:21:38;;;;;;;21.48;7.18;;;3.50;99.90;;;;;;5015111;28;20046;-77
2022/04/09 07:24:05;;;;;;;18.25;7.68;;;3.40;99.90;;;;;;5004986;28;20184;-78
2022/04/09 07:26:32;;;;;;;17.85;7.40;;;3.40;99.90;;;;;;5003741;28;20065;-77
2022/04/09 07:28:59;;;;;;;19.67;8.13;;;3.50;99.90;;;;;;5003855;28;20100;-77
2022/04/09 07:31:26;;;;;;;24.95;8.18;;;3.50;99.90;;;;;;4988192;28;20127;-77
2022/04/09 07:33:53;;;;;;;11.32;6.65;;;3.60;99.90;;;;;;5005052;28;20064;-77
2022/04/09 07:36:19;;;;;;;16.48;7.10;;;3.70;99.90;;;;;;5004094;28;20080;-77
2022/04/09 07:38:46;;;;;;;25.80;10.32;;;3.80;99.90;;;;;;4986109;28;20584;-78
2022/04/09 07:41:13;;;;;;;22.88;8.95;;;3.90;99.90;;;;;;5003634;28;20046;-78
2022/04/09 07:43:39;;;;;;;16.20;8.60;;;3.90;99.90;;;;;;5008282;28;20096;-77
2022/04/09 07:46:06;;;;;;;18.73;7.57;;;4.10;99.90;;;;;;5018289;28;20573;-77
2022/04/09 07:48:34;;;;;;;15.93;7.43;;;4.10;99.90;;;;;;4995970;28;20164;-77
2022/04/09 07:51:01;;;;;;;16.27;7.93;;;4.30;99.90;;;;;;5001384;28;20064;-77
2022/04/09 07:53:27;;;;;;;17.92;9.15;;;4.40;99.90;;;;;;4988797;28;20108;-78
2022/04/09 07:55:54;;;;;;;21.60;10.60;;;4.10;99.90;;;;;;4987226;28;20095;-78
2022/04/09 07:58:22;;;;;;;21.60;9.90;;;4.00;99.90;;;;;;4990138;28;20112;-77
2022/04/09 08:00:50;;;;;;;27.55;10.60;;;3.90;99.90;;;;;;4967475;28;20239;-77
2022/04/09 08:03:17;;;;;;;30.15;11.40;;;3.90;99.90;;;;;;4967995;28;20054;-77
2022/04/09 08:05:44;;;;;;;23.02;10.40;;;3.90;99.90;;;;;;4984553;28;20038;-78
2022/04/09 08:08:11;;;;;;;15.55;7.53;;;3.90;99.90;;;;;;4967644;28;20085;-77
2022/04/09 08:10:39;;;;;;;20.10;8.80;;;3.90;99.90;;;;;;4967192;28;20104;-78
2022/04/09 08:13:06;;;;;;;14.32;7.80;;;3.90;99.90;;;;;;4990166;28;20049;-78
2022/04/09 08:15:33;;;;;;;14.85;8.27;;;4.00;99.90;;;;;;4997406;28;20042;-78
2022/04/09 08:18:05;;;;;;;16.35;8.93;;;4.10;99.90;;;;;;5005056;28;20065;-77
2022/04/09 08:20:52;;;;;;;16.48;8.10;;;4.20;99.90;;;;;;5002555;28;20566;-78
2022/04/09 08:23:19;;;;;;;11.18;7.82;;;4.30;99.90;;;;;;5002781;28;20050;-77
2022/04/09 08:25:46;;;;;;;12.32;7.65;;;4.20;99.90;;;;;;5004640;28;20037;-77
2022/04/09 08:28:13;;;;;;;7.85;5.93;;;4.20;99.90;;;;;;4986209;28;20097;-76
2022/04/09 08:30:41;;;;;;;12.95;7.28;;;4.50;99.90;;;;;;4989312;28;20095;-77
2022/04/09 08:33:10;;;;;;;10.32;6.38;;;4.60;99.90;;;;;;4991996;28;20766;-78
2022/04/09 08:35:37;;;;;;;7.53;5.47;;;4.30;99.90;;;;;;4990846;28;20198;-77
2022/04/09 08:38:04;;;;;;;8.00;5.38;;;4.10;99.90;;;;;;5007784;28;20049;-78
2022/04/09 08:40:32;;;;;;;8.27;5.97;;;3.90;99.90;;;;;;4990328;28;20503;-77
2022/04/09 08:42:59;;;;;;;7.30;5.05;;;3.80;99.90;;;;;;5011527;28;20045;-77
2022/04/09 08:45:26;;;;;;;9.85;5.28;;;3.70;99.90;;;;;;5002782;28;20076;-77
2022/04/09 08:47:54;;;;;;;8.60;4.57;;;3.60;99.90;;;;;;5019624;28;20397;-78
2022/04/09 08:50:22;;;;;;;10.00;4.60;;;3.60;99.90;;;;;;5004759;28;20081;-77
2022/04/09 08:52:50;;;;;;;8.85;4.80;;;3.60;99.90;;;;;;5007367;28;20499;-78
2022/04/09 08:55:17;;;;;;;7.43;4.78;;;3.40;99.90;;;;;;4991283;28;20180;-77
2022/04/09 08:57:45;;;;;;;12.55;6.03;;;3.00;99.90;;;;;;5007434;28;20046;-80
2022/04/09 09:00:17;;;;;;;11.10;6.25;;;2.80;99.90;;;;;;4991894;28;20092;-80
2022/04/09 09:02:55;;;;;;;12.32;6.22;;;2.90;99.90;;;;;;4991949;28;20053;-80
2022/04/09 09:05:37;;;;;;;14.07;6.97;;;3.00;99.90;;;;;;5007318;28;20053;-79
2022/04/09 09:08:05;;;;;;;20.10;9.43;;;3.10;99.90;;;;;;5008032;28;20065;-80
2022/04/09 09:10:32;;;;;;;26.65;9.20;;;3.10;99.90;;;;;;5007029;28;20112;-80
2022/04/09 09:13:11;;;;;;;19.75;9.82;;;3.20;99.90;;;;;;5011482;28;20050;-79
2022/04/09 09:15:55;;;;;;;18.02;9.77;;;3.50;99.90;;;;;;5000621;28;20044;-79
2022/04/09 09:18:26;;;;;;;22.80;10.48;;;3.90;99.90;;;;;;5019562;28;20045;-78
2022/04/09 09:20:57;;;;;;;24.60;9.93;;;4.30;99.90;;;;;;4998066;28;20099;-79
2022/04/09 09:23:30;;;;;;;22.02;10.70;;;4.60;99.90;;;;;;5007176;28;20149;-79
2022/04/09 09:25:58;;;;;;;22.73;9.63;;;4.80;99.90;;;;;;4991026;28;20076;-78
2022/04/09 09:28:26;;;;;;;17.00;9.00;;;5.10;99.90;;;;;;4997078;28;20061;-78
2022/04/09 09:30:53;;;;;;;21.40;9.77;;;5.20;99.90;;;;;;5007267;28;20665;-77
2022/04/09 09:33:20;;;;;;;24.15;10.02;;;5.30;99.90;;;;;;5006894;28;20049;-79
2022/04/09 09:36:07;;;;;;;19.05;8.45;;;5.60;99.90;;;;;;4993109;28;20059;-80
2022/04/09 09:38:34;;;;;;;20.73;9.50;;;5.60;99.90;;;;;;5004885;28;20565;-79
2022/04/09 09:41:03;;;;;;;15.13;9.48;;;5.40;99.90;;;;;;4987926;28;20042;-78
2022/04/09 09:43:30;;;;;;;15.10;8.32;;;5.10;99.90;;;;;;5015884;28;20054;-79
2022/04/09 09:45:57;;;;;;;14.45;8.73;;;4.80;99.90;;;;;;4993023;28;20112;-81
2022/04/09 09:48:35;;;;;;;20.15;10.32;;;4.50;99.90;;;;;;5007583;28;20050;-79
2022/04/09 09:51:02;;;;;;;26.05;8.43;;;4.30;99.90;;;;;;5004676;28;20038;-79
2022/04/09 09:53:31;;;;;;;22.48;10.55;;;4.70;99.90;;;;;;5007319;28;20527;-79
2022/04/09 09:55:59;;;;;;;14.57;6.70;;;5.10;99.90;;;;;;4990367;28;20042;-79
2022/04/09 09:58:27;;;;;;;16.55;6.18;;;5.60;99.90;;;;;;4990128;28;20108;-79
2022/04/09 10:01:15;;;;;;;10.10;6.22;;;5.80;99.90;;;;;;5006433;28;20848;-80
2022/04/09 10:03:43;;;;;;;7.90;7.13;;;5.70;99.90;;;;;;5006632;28;20131;-78
2022/04/09 10:06:10;;;;;;;11.60;6.78;;;5.60;99.90;;;;;;5003223;28;20066;-80
2022/04/09 10:08:37;;;;;;;23.38;8.48;;;5.60;99.90;;;;;;4992221;28;20053;-79
2022/04/09 10:11:04;;;;;;;16.20;8.02;;;5.70;99.90;;;;;;5005941;28;20053;-80
2022/04/09 10:13:34;;;;;;;11.30;8.38;;;5.90;99.90;;;;;;5015622;28;20089;-79
2022/04/09 10:16:02;;;;;;;14.50;11.00;;;5.80;99.90;;;;;;5010224;28;20049;-79
2022/04/09 10:18:31;;;;;;;12.48;10.50;;;5.70;99.90;;;;;;4987423;28;20049;-80
2022/04/09 10:21:00;;;;;;;15.93;11.60;;;5.70;99.90;;;;;;5005256;28;20046;-79
2022/04/09 10:23:33;;;;;;;13.10;11.80;;;5.90;99.90;;;;;;5006756;28;20054;-79
2022/04/09 10:26:01;;;;;;;14.02;11.90;;;5.90;99.90;;;;;;5006064;28;20096;-78
2022/04/09 10:28:34;;;;;;;19.65;11.85;;;5.80;99.90;;;;;;5005098;28;20058;-78
2022/04/09 10:31:01;;;;;;;19.70;12.45;;;5.80;99.90;;;;;;5004799;28;20038;-79
2022/04/09 10:33:33;;;;;;;13.65;12.30;;;5.80;99.90;;;;;;4990600;28;20143;-79
2022/04/09 10:36:02;;;;;;;14.77;13.38;;;5.70;99.90;;;;;;4989624;28;20065;-78
2022/04/09 10:38:29;;;;;;;14.07;10.98;;;5.40;99.90;;;;;;4989755;28;20569;-79
2022/04/09 10:41:02;;;;;;;11.32;10.23;;;5.30;99.90;;;;;;5004959;28;20129;-78
2022/04/09 10:43:39;;;;;;;6.10;5.60;;;5.20;99.90;;;;;;5014599;28;20120;-79
2022/04/09 10:46:17;;;;;;;6.63;4.40;;;4.50;99.90;;;;;;5003340;28;20056;-80
2022/04/09 10:48:47;;;;;;;7.97;3.60;;;4.10;99.90;;;;;;5013959;28;20060;-79
2022/04/09 10:51:15;;;;;;;5.18;4.05;;;3.90;99.90;;;;;;5004216;28;20045;-80
2022/04/09 10:53:50;;;;;;;7.03;3.50;;;4.10;99.90;;;;;;5003530;28;20496;-78
2022/04/09 10:56:20;;;;;;;;;;;4.40;99.90;;;;;;5005171;28;20511;-78
2022/04/09 10:59:08;;;;;;;21.48;4.97;;;4.70;99.90;;;;;;5005172;28;19932;-80
2022/04/09 11:01:47;;;;;;;7.78;4.68;;;5.20;99.90;;;;;;4986086;28;20448;-80
2022/04/09 11:04:27;;;;;;;22.60;5.50;;;5.70;99.90;;;;;;4987561;28;20062;-78
2022/04/09 11:07:16;;;;;;;11.38;5.22;;;6.00;99.90;;;;;;5000529;28;20046;-80
2022/04/09 11:10:00;;;;;;;11.50;6.03;;;6.30;99.90;;;;;;5000902;28;20077;-79
2022/04/09 11:12:30;;;;;;;8.88;5.20;;;6.40;99.90;;;;;;5006321;28;20041;-79
2022/04/09 11:15:04;;;;;;;11.52;5.80;;;7.00;99.90;;;;;;5003224;28;20053;-78
2022/04/09 11:17:47;;;;;;;8.55;7.80;;;7.40;99.90;;;;;;5002857;28;20593;-79
2022/04/09 11:20:15;;;;;;;9.38;8.48;;;7.00;99.90;;;;;;5004090;28;20660;-79
2022/04/09 11:22:47;;;;;;;8.35;7.85;;;6.70;99.90;;;;;;5004401;28;20077;-78
2022/04/09 11:25:28;;;;;;;8.85;8.25;;;6.60;99.90;;;;;;5005089;28;20050;-79
2022/04/09 11:28:13;;;;;;;9.23;8.50;;;6.30;99.90;;;;;;5003570;28;20507;-78
2022/04/09 11:30:58;;;;;;;10.57;9.60;;;6.20;99.90;;;;;;4987523;28;20084;-78
2022/04/09 11:33:24;;;;;;;10.70;9.82;;;6.10;99.90;;;;;;5005074;28;20278;-78
2022/04/09 11:35:52;;;;;;;10.48;9.55;;;5.90;99.90;;;;;;4987982;28;20104;-78
2022/04/09 11:38:22;;;;;;;10.60;9.80;;;5.90;99.90;;;;;;4987894;28;20046;-79
2022/04/09 11:40:48;;;;;;;10.95;10.15;;;5.80;99.90;;;;;;5004290;28;20042;-77
2022/04/09 11:43:17;;;;;;;12.77;9.85;;;5.80;99.90;;;;;;4987845;28;20092;-78
2022/04/09 11:45:45;;;;;;;10.93;9.95;;;6.10;99.90;;;;;;5001315;28;20049;-78
2022/04/09 11:48:25;;;;;;;12.07;10.25;;;6.10;99.90;;;;;;5004931;28;20057;-77
2022/04/09 11:50:53;;;;;;;10.50;9.27;;;6.10;99.90;;;;;;5004359;28;20046;-79
2022/04/09 11:53:22;;;;;;;11.80;11.00;;;6.30;99.90;;;;;;5003921;28;20049;-79
2022/04/09 11:55:57;;;;;;;15.05;13.23;;;6.50;99.90;;;;;;5020229;28;20309;-78
2022/04/09 11:58:29;;;;;;;;;;;6.60;99.90;;;;;;4999049;28;20109;-79
2022/04/09 12:00:57;;;;;;;16.95;15.50;;;6.80;99.90;;;;;;5003676;28;19934;-79
2022/04/09 12:03:23;;;;;;;15.02;13.93;;;6.60;99.90;;;;;;4987814;28;20050;-79
2022/04/09 12:05:51;;;;;;;12.52;11.63;;;6.50;99.90;;;;;;4986704;28;20038;-78
2022/04/09 12:08:22;;;;;;;12.43;11.35;;;6.20;99.90;;;;;;5004161;28;20046;-77
2022/04/09 12:10:54;;;;;;;12.30;11.25;;;6.00;99.90;;;;;;4987306;28;20045;-78
2022/04/09 12:13:25;;;;;;;13.95;13.05;;;5.80;99.90;;;;;;4992510;28;20064;-78
2022/04/09 12:15:54;;;;;;;13.07;12.18;;;6.00;99.90;;;;;;4992228;28;20775;-78
2022/04/09 12:18:26;;;;;;;15.60;14.60;;;6.30;99.90;;;;;;5003551;28;20058;-78
2022/04/09 12:20:53;;;;;;;16.02;15.00;;;6.40;99.90;;;;;;5003524;28;20037;-79
2022/04/09 12:23:32;;;;;;;14.55;13.63;;;6.30;99.90;;;;;;5002956;28;20046;-78
2022/04/09 12:26:00;;;;;;;14.15;13.18;;;6.50;99.90;;;;;;5003636;28;20240;-78
2022/04/09 12:28:31;;;;;;;15.00;14.30;;;6.90;99.90;;;;;;5003020;28;20038;-78
2022/04/09 12:31:00;;;;;;;15.25;14.38;;;6.90;99.90;;;;;;5004554;28;20073;-77
2022/04/09 12:33:27;;;;;;;15.02;13.82;;;6.70;99.90;;;;;;5003369;28;20050;-78
2022/04/09 12:36:06;;;;;;;16.02;14.90;;;6.70;99.90;;;;;;5001290;28;20389;-78
2022/04/09 12:38:34;;;;;;;17.95;16.95;;;6.70;99.90;;;;;;5003867;28;20049;-77
2022/04/09 12:41:04;;;;;;;18.45;17.23;;;6.80;99.90;;;;;;5005722;28;20161;-77
2022/04/09 12:43:41;;;;;;;18.65;17.55;;;6.70;99.90;;;;;;5004445;28;20539;-77
2022/04/09 12:46:11;;;;;;;17.30;16.30;;;6.60;99.90;;;;;;4982763;28;20069;-77
2022/04/09 12:48:42;;;;;;;18.13;17.05;;;6.70;99.90;;;;;;4987773;28;20160;-79
2022/04/09 12:51:12;;;;;;;19.25;18.15;;;6.80;99.90;;;;;;5004067;28;20050;-78
2022/04/09 12:53:40;;;;;;;18.40;17.50;;;6.60;99.90;;;;;;5004030;28;20053;-78
2022/04/09 12:56:09;;;;;;;19.42;18.27;;;6.50;99.90;;;;;;5002964;28;20190;-78
2022/04/09 12:58:36;;;;;;;19.23;17.92;;;6.50;99.90;;;;;;5004129;28;20070;-78
2022/04/09 13:01:04;;;;;;;19.58;18.33;;;6.70;99.90;;;;;;5004317;28;20116;-79